sensor_id;sensor_type;location;lat;lon;timestamp;P1;durP1;ratioP1;P2;durP2;ratioP2
65162;SDS011;51751;55.714;37.436;2023-03-21T00:00:58;5.55;;;2.53;;
65162;SDS011;51751;55.714;37.436;2023-03-21T00:03:31;4.22;;;2.55;;
65162;SDS011;51751;55.714;37.436;2023-03-21T00:05:58;7.57;;;3.15;;
65162;SDS011;51751;55.714;37.436;2023-03-21T00:08:27;6.95;;;3.30;;
65162;SDS011;51751;55.714;37.436;2023-03-21T00:10:56;4.47;;;2.70;;
65162;SDS011;51751;55.714;37.436;2023-03-21T00:13:23;5.45;;;2.83;;
65162;SDS011;51751;55.714;37.436;2023-03-21T00:15:51;8.75;;;3.00;;
65162;SDS011;51751;55.714;37.436;2023-03-21T00:18:37;8.93;;;3.25;;
65162;SDS011;51751;55.714;37.436;2023-03-21T00:21:07;9.57;;;3.20;;
65162;SDS011;51751;55.714;37.436;2023-03-21T00:23:35;5.03;;;2.75;;
65162;SDS011;51751;55.714;37.436;2023-03-21T00:26:01;5.88;;;3.03;;
65162;SDS011;51751;55.714;37.436;2023-03-21T00:28:27;7.38;;;3.47;;
65162;SDS011;51751;55.714;37.436;2023-03-21T00:30:59;6.38;;;2.97;;
65162;SDS011;51751;55.714;37.436;2023-03-21T00:33:28;5.53;;;3.00;;
65162;SDS011;51751;55.714;37.436;2023-03-21T00:35:54;8.15;;;3.22;;
65162;SDS011;51751;55.714;37.436;2023-03-21T00:38:20;5.20;;;2.70;;
65162;SDS011;51751;55.714;37.436;2023-03-21T00:40:47;9.50;;;3.10;;
65162;SDS011;51751;55.714;37.436;2023-03-21T00:43:17;5.38;;;2.65;;
65162;SDS011;51751;55.714;37.436;2023-03-21T00:45:50;5.10;;;2.75;;
65162;SDS011;51751;55.714;37.436;2023-03-21T00:48:17;4.70;;;2.72;;
65162;SDS011;51751;55.714;37.436;2023-03-21T00:50:43;6.82;;;3.17;;
65162;SDS011;51751;55.714;37.436;2023-03-21T00:53:11;7.13;;;3.33;;
65162;SDS011;51751;55.714;37.436;2023-03-21T00:55:37;4.60;;;2.58;;
65162;SDS011;51751;55.714;37.436;2023-03-21T00:58:22;9.30;;;2.80;;
65162;SDS011;51751;55.714;37.436;2023-03-21T01:03:40;8.02;;;3.20;;
65162;SDS011;51751;55.714;37.436;2023-03-21T01:06:36;6.20;;;2.70;;
65162;SDS011;51751;55.714;37.436;2023-03-21T01:09:05;13.40;;;3.10;;
65162;SDS011;51751;55.714;37.436;2023-03-21T01:11:40;26.23;;;3.83;;
65162;SDS011;51751;55.714;37.436;2023-03-21T01:14:06;7.80;;;3.22;;
65162;SDS011;51751;55.714;37.436;2023-03-21T01:16:33;6.97;;;3.10;;
65162;SDS011;51751;55.714;37.436;2023-03-21T01:18:59;12.20;;;2.90;;
65162;SDS011;51751;55.714;37.436;2023-03-21T01:21:31;13.07;;;2.85;;
65162;SDS011;51751;55.714;37.436;2023-03-21T01:23:57;13.02;;;3.03;;
65162;SDS011;51751;55.714;37.436;2023-03-21T01:26:23;8.10;;;2.78;;
65162;SDS011;51751;55.714;37.436;2023-03-21T01:28:50;9.57;;;2.97;;
65162;SDS011;51751;55.714;37.436;2023-03-21T01:31:16;6.57;;;3.08;;
65162;SDS011;51751;55.714;37.436;2023-03-21T01:33:43;8.80;;;2.72;;
65162;SDS011;51751;55.714;37.436;2023-03-21T01:36:15;6.55;;;3.05;;
65162;SDS011;51751;55.714;37.436;2023-03-21T01:38:43;10.93;;;3.03;;
65162;SDS011;51751;55.714;37.436;2023-03-21T01:41:18;10.80;;;3.45;;
65162;SDS011;51751;55.714;37.436;2023-03-21T01:43:53;6.00;;;3.22;;
65162;SDS011;51751;55.714;37.436;2023-03-21T01:46:34;7.30;;;2.90;;
65162;SDS011;51751;55.714;37.436;2023-03-21T01:49:39;6.72;;;2.83;;
65162;SDS011;51751;55.714;37.436;2023-03-21T01:52:21;12.15;;;3.55;;
65162;SDS011;51751;55.714;37.436;2023-03-21T01:54:51;8.63;;;3.17;;
65162;SDS011;51751;55.714;37.436;2023-03-21T01:57:26;4.05;;;2.38;;
65162;SDS011;51751;55.714;37.436;2023-03-21T01:59:58;5.30;;;2.67;;
65162;SDS011;51751;55.714;37.436;2023-03-21T02:02:48;6.53;;;3.10;;
65162;SDS011;51751;55.714;37.436;2023-03-21T02:08:19;14.23;;;3.90;;
65162;SDS011;51751;55.714;37.436;2023-03-21T02:10:46;11.48;;;5.10;;
65162;SDS011;51751;55.714;37.436;2023-03-21T02:13:21;12.82;;;4.47;;
65162;SDS011;51751;55.714;37.436;2023-03-21T02:21:32;14.52;;;4.15;;
65162;SDS011;51751;55.714;37.436;2023-03-21T02:24:13;8.93;;;3.50;;
65162;SDS011;51751;55.714;37.436;2023-03-21T02:26:55;9.25;;;3.50;;
65162;SDS011;51751;55.714;37.436;2023-03-21T02:38:03;26.00;;;3.28;;
65162;SDS011;51751;55.714;37.436;2023-03-21T02:40:44;17.02;;;3.90;;
65162;SDS011;51751;55.714;37.436;2023-03-21T02:43:38;9.27;;;3.45;;
65162;SDS011;51751;55.714;37.436;2023-03-21T02:46:13;4.18;;;2.78;;
65162;SDS011;51751;55.714;37.436;2023-03-21T02:49:03;7.18;;;3.47;;
65162;SDS011;51751;55.714;37.436;2023-03-21T02:51:52;9.13;;;3.78;;
65162;SDS011;51751;55.714;37.436;2023-03-21T02:54:22;7.85;;;3.67;;
65162;SDS011;51751;55.714;37.436;2023-03-21T02:56:58;7.72;;;3.60;;
65162;SDS011;51751;55.714;37.436;2023-03-21T02:59:25;14.55;;;2.92;;
65162;SDS011;51751;55.714;37.436;2023-03-21T03:01:53;9.23;;;3.25;;
65162;SDS011;51751;55.714;37.436;2023-03-21T03:04:22;9.50;;;3.35;;
65162;SDS011;51751;55.714;37.436;2023-03-21T03:07:02;10.73;;;3.67;;
65162;SDS011;51751;55.714;37.436;2023-03-21T03:15:32;8.50;;;3.78;;
65162;SDS011;51751;55.714;37.436;2023-03-21T03:25:55;11.43;;;3.72;;
65162;SDS011;51751;55.714;37.436;2023-03-21T03:28:28;8.32;;;3.78;;
65162;SDS011;51751;55.714;37.436;2023-03-21T03:30:56;8.27;;;3.67;;
65162;SDS011;51751;55.714;37.436;2023-03-21T03:33:28;15.48;;;4.25;;
65162;SDS011;51751;55.714;37.436;2023-03-21T03:35:55;15.13;;;4.50;;
65162;SDS011;51751;55.714;37.436;2023-03-21T03:38:24;9.60;;;4.28;;
65162;SDS011;51751;55.714;37.436;2023-03-21T03:40:51;7.78;;;3.67;;
65162;SDS011;51751;55.714;37.436;2023-03-21T03:43:36;8.85;;;4.18;;
65162;SDS011;51751;55.714;37.436;2023-03-21T03:46:10;14.45;;;3.95;;
65162;SDS011;51751;55.714;37.436;2023-03-21T03:48:57;8.68;;;3.55;;
65162;SDS011;51751;55.714;37.436;2023-03-21T03:54:34;13.70;;;4.03;;
65162;SDS011;51751;55.714;37.436;2023-03-21T03:57:03;11.38;;;4.20;;
65162;SDS011;51751;55.714;37.436;2023-03-21T03:59:32;12.05;;;4.03;;
65162;SDS011;51751;55.714;37.436;2023-03-21T04:02:18;10.10;;;4.38;;
65162;SDS011;51751;55.714;37.436;2023-03-21T04:04:46;16.40;;;4.68;;
65162;SDS011;51751;55.714;37.436;2023-03-21T04:07:13;9.35;;;4.35;;
65162;SDS011;51751;55.714;37.436;2023-03-21T04:09:40;10.63;;;4.10;;
65162;SDS011;51751;55.714;37.436;2023-03-21T04:12:07;12.68;;;5.15;;
65162;SDS011;51751;55.714;37.436;2023-03-21T04:14:33;16.23;;;5.20;;
65162;SDS011;51751;55.714;37.436;2023-03-21T04:17:02;15.32;;;4.15;;
65162;SDS011;51751;55.714;37.436;2023-03-21T04:19:30;8.63;;;4.20;;
65162;SDS011;51751;55.714;37.436;2023-03-21T04:21:57;12.75;;;4.95;;
65162;SDS011;51751;55.714;37.436;2023-03-21T04:24:23;10.15;;;4.65;;
65162;SDS011;51751;55.714;37.436;2023-03-21T04:26:49;21.50;;;5.57;;
65162;SDS011;51751;55.714;37.436;2023-03-21T04:29:35;14.60;;;5.40;;
65162;SDS011;51751;55.714;37.436;2023-03-21T04:32:14;11.88;;;4.90;;
65162;SDS011;51751;55.714;37.436;2023-03-21T04:34:56;9.65;;;4.93;;
65162;SDS011;51751;55.714;37.436;2023-03-21T04:37:41;20.20;;;5.15;;
65162;SDS011;51751;55.714;37.436;2023-03-21T04:40:14;13.95;;;4.70;;
65162;SDS011;51751;55.714;37.436;2023-03-21T04:42:44;12.05;;;5.07;;
65162;SDS011;51751;55.714;37.436;2023-03-21T04:45:14;17.23;;;5.30;;
65162;SDS011;51751;55.714;37.436;2023-03-21T04:47:43;9.00;;;4.97;;
65162;SDS011;51751;55.714;37.436;2023-03-21T04:50:10;13.85;;;5.05;;
65162;SDS011;51751;55.714;37.436;2023-03-21T04:52:38;12.23;;;5.45;;
65162;SDS011;51751;55.714;37.436;2023-03-21T04:55:05;8.05;;;4.70;;
65162;SDS011;51751;55.714;37.436;2023-03-21T04:57:37;12.38;;;4.75;;
65162;SDS011;51751;55.714;37.436;2023-03-21T05:00:04;14.07;;;5.18;;
65162;SDS011;51751;55.714;37.436;2023-03-21T05:02:34;10.02;;;5.15;;
65162;SDS011;51751;55.714;37.436;2023-03-21T05:05:00;14.32;;;5.30;;
65162;SDS011;51751;55.714;37.436;2023-03-21T05:07:45;9.73;;;4.55;;
65162;SDS011;51751;55.714;37.436;2023-03-21T05:10:11;10.00;;;4.60;;
65162;SDS011;51751;55.714;37.436;2023-03-21T05:12:39;13.05;;;4.95;;
65162;SDS011;51751;55.714;37.436;2023-03-21T05:15:06;13.60;;;5.13;;
65162;SDS011;51751;55.714;37.436;2023-03-21T05:17:35;9.15;;;4.45;;
65162;SDS011;51751;55.714;37.436;2023-03-21T05:20:03;11.55;;;4.80;;
65162;SDS011;51751;55.714;37.436;2023-03-21T05:22:36;10.38;;;4.70;;
65162;SDS011;51751;55.714;37.436;2023-03-21T05:25:07;12.95;;;5.63;;
65162;SDS011;51751;55.714;37.436;2023-03-21T05:27:48;8.65;;;4.22;;
65162;SDS011;51751;55.714;37.436;2023-03-21T05:30:25;16.02;;;4.70;;
65162;SDS011;51751;55.714;37.436;2023-03-21T05:32:59;10.32;;;4.75;;
65162;SDS011;51751;55.714;37.436;2023-03-21T05:35:25;10.43;;;4.80;;
65162;SDS011;51751;55.714;37.436;2023-03-21T05:37:51;10.52;;;5.25;;
65162;SDS011;51751;55.714;37.436;2023-03-21T05:40:19;12.15;;;4.80;;
65162;SDS011;51751;55.714;37.436;2023-03-21T05:42:47;11.32;;;5.22;;
65162;SDS011;51751;55.714;37.436;2023-03-21T05:45:21;14.45;;;5.10;;
65162;SDS011;51751;55.714;37.436;2023-03-21T05:47:50;20.55;;;5.47;;
65162;SDS011;51751;55.714;37.436;2023-03-21T05:50:17;9.88;;;4.68;;
65162;SDS011;51751;55.714;37.436;2023-03-21T05:52:51;12.93;;;5.63;;
65162;SDS011;51751;55.714;37.436;2023-03-21T05:55:20;10.05;;;4.97;;
65162;SDS011;51751;55.714;37.436;2023-03-21T05:57:47;11.07;;;5.50;;
65162;SDS011;51751;55.714;37.436;2023-03-21T06:00:19;9.25;;;4.13;;
65162;SDS011;51751;55.714;37.436;2023-03-21T06:03:05;14.02;;;5.55;;
65162;SDS011;51751;55.714;37.436;2023-03-21T06:05:54;23.20;;;5.35;;
65162;SDS011;51751;55.714;37.436;2023-03-21T06:08:23;9.38;;;4.72;;
65162;SDS011;51751;55.714;37.436;2023-03-21T06:10:49;10.98;;;4.75;;
65162;SDS011;51751;55.714;37.436;2023-03-21T06:13:16;16.65;;;5.25;;
65162;SDS011;51751;55.714;37.436;2023-03-21T06:15:42;12.30;;;4.95;;
65162;SDS011;51751;55.714;37.436;2023-03-21T06:18:14;12.88;;;5.25;;
65162;SDS011;51751;55.714;37.436;2023-03-21T06:20:49;14.15;;;6.15;;
65162;SDS011;51751;55.714;37.436;2023-03-21T06:23:18;13.90;;;5.82;;
65162;SDS011;51751;55.714;37.436;2023-03-21T06:25:44;14.18;;;5.43;;
65162;SDS011;51751;55.714;37.436;2023-03-21T06:28:13;40.30;;;6.20;;
65162;SDS011;51751;55.714;37.436;2023-03-21T06:30:40;11.57;;;5.72;;
65162;SDS011;51751;55.714;37.436;2023-03-21T06:33:16;17.48;;;5.53;;
65162;SDS011;51751;55.714;37.436;2023-03-21T06:35:43;13.88;;;5.35;;
65162;SDS011;51751;55.714;37.436;2023-03-21T06:38:09;21.35;;;6.15;;
65162;SDS011;51751;55.714;37.436;2023-03-21T06:40:38;22.05;;;6.72;;
65162;SDS011;51751;55.714;37.436;2023-03-21T06:43:07;18.30;;;6.55;;
65162;SDS011;51751;55.714;37.436;2023-03-21T06:45:33;18.60;;;5.90;;
65162;SDS011;51751;55.714;37.436;2023-03-21T06:47:59;16.55;;;6.05;;
65162;SDS011;51751;55.714;37.436;2023-03-21T06:50:33;13.38;;;5.85;;
65162;SDS011;51751;55.714;37.436;2023-03-21T06:52:59;16.45;;;6.32;;
65162;SDS011;51751;55.714;37.436;2023-03-21T06:55:28;17.20;;;6.70;;
65162;SDS011;51751;55.714;37.436;2023-03-21T06:57:57;15.60;;;6.28;;
65162;SDS011;51751;55.714;37.436;2023-03-21T07:00:25;14.52;;;5.75;;
65162;SDS011;51751;55.714;37.436;2023-03-21T07:02:54;18.88;;;5.70;;
65162;SDS011;51751;55.714;37.436;2023-03-21T07:05:25;12.88;;;5.70;;
65162;SDS011;51751;55.714;37.436;2023-03-21T07:07:51;20.95;;;6.45;;
65162;SDS011;51751;55.714;37.436;2023-03-21T07:10:17;21.67;;;6.05;;
65162;SDS011;51751;55.714;37.436;2023-03-21T07:12:59;17.45;;;5.75;;
65162;SDS011;51751;55.714;37.436;2023-03-21T07:15:45;12.48;;;6.13;;
65162;SDS011;51751;55.714;37.436;2023-03-21T07:18:11;12.68;;;5.95;;
65162;SDS011;51751;55.714;37.436;2023-03-21T07:20:37;17.52;;;6.50;;
65162;SDS011;51751;55.714;37.436;2023-03-21T07:23:06;17.83;;;5.95;;
65162;SDS011;51751;55.714;37.436;2023-03-21T07:25:32;16.25;;;6.35;;
65162;SDS011;51751;55.714;37.436;2023-03-21T07:28:04;13.38;;;6.20;;
65162;SDS011;51751;55.714;37.436;2023-03-21T07:30:34;7.57;;;4.88;;
65162;SDS011;51751;55.714;37.436;2023-03-21T07:33:02;14.00;;;6.70;;
65162;SDS011;51751;55.714;37.436;2023-03-21T07:35:46;8.45;;;4.38;;
65162;SDS011;51751;55.714;37.436;2023-03-21T07:38:16;13.40;;;5.53;;
65162;SDS011;51751;55.714;37.436;2023-03-21T07:40:44;15.00;;;6.15;;
65162;SDS011;51751;55.714;37.436;2023-03-21T07:43:13;12.07;;;5.50;;
65162;SDS011;51751;55.714;37.436;2023-03-21T07:45:42;10.13;;;5.00;;
65162;SDS011;51751;55.714;37.436;2023-03-21T07:48:09;13.45;;;5.93;;
65162;SDS011;51751;55.714;37.436;2023-03-21T07:50:39;7.72;;;4.90;;
65162;SDS011;51751;55.714;37.436;2023-03-21T07:53:10;14.10;;;5.47;;
65162;SDS011;51751;55.714;37.436;2023-03-21T07:55:36;14.57;;;5.45;;
65162;SDS011;51751;55.714;37.436;2023-03-21T07:58:02;11.82;;;5.15;;
65162;SDS011;51751;55.714;37.436;2023-03-21T08:00:29;7.45;;;4.40;;
65162;SDS011;51751;55.714;37.436;2023-03-21T08:02:56;7.05;;;3.58;;
65162;SDS011;51751;55.714;37.436;2023-03-21T08:05:23;17.38;;;4.97;;
65162;SDS011;51751;55.714;37.436;2023-03-21T08:07:51;9.48;;;4.93;;
65162;SDS011;51751;55.714;37.436;2023-03-21T08:10:17;6.72;;;4.40;;
65162;SDS011;51751;55.714;37.436;2023-03-21T08:12:43;7.00;;;4.43;;
65162;SDS011;51751;55.714;37.436;2023-03-21T08:15:10;9.30;;;4.75;;
65162;SDS011;51751;55.714;37.436;2023-03-21T08:17:37;9.43;;;4.15;;
65162;SDS011;51751;55.714;37.436;2023-03-21T08:20:05;12.57;;;4.93;;
65162;SDS011;51751;55.714;37.436;2023-03-21T08:22:33;13.00;;;4.97;;
65162;SDS011;51751;55.714;37.436;2023-03-21T08:25:00;14.77;;;4.63;;
65162;SDS011;51751;55.714;37.436;2023-03-21T08:27:33;10.52;;;4.93;;
65162;SDS011;51751;55.714;37.436;2023-03-21T08:29:59;11.00;;;5.05;;
65162;SDS011;51751;55.714;37.436;2023-03-21T08:32:26;9.70;;;5.13;;
65162;SDS011;51751;55.714;37.436;2023-03-21T08:34:59;10.77;;;5.75;;
65162;SDS011;51751;55.714;37.436;2023-03-21T08:37:26;14.30;;;5.25;;
65162;SDS011;51751;55.714;37.436;2023-03-21T08:39:53;8.23;;;5.22;;
65162;SDS011;51751;55.714;37.436;2023-03-21T08:42:19;8.65;;;5.20;;
65162;SDS011;51751;55.714;37.436;2023-03-21T08:44:46;7.60;;;4.40;;
65162;SDS011;51751;55.714;37.436;2023-03-21T08:47:12;10.55;;;5.90;;
65162;SDS011;51751;55.714;37.436;2023-03-21T08:49:38;10.13;;;5.75;;
65162;SDS011;51751;55.714;37.436;2023-03-21T08:52:06;11.95;;;5.90;;
65162;SDS011;51751;55.714;37.436;2023-03-21T08:54:32;11.50;;;5.70;;
65162;SDS011;51751;55.714;37.436;2023-03-21T08:56:58;16.08;;;6.20;;
65162;SDS011;51751;55.714;37.436;2023-03-21T08:59:24;8.65;;;4.90;;
65162;SDS011;51751;55.714;37.436;2023-03-21T09:01:53;9.85;;;4.97;;
65162;SDS011;51751;55.714;37.436;2023-03-21T09:04:20;10.35;;;4.88;;
65162;SDS011;51751;55.714;37.436;2023-03-21T09:06:46;12.38;;;5.70;;
65162;SDS011;51751;55.714;37.436;2023-03-21T09:09:13;13.75;;;6.03;;
65162;SDS011;51751;55.714;37.436;2023-03-21T09:11:40;9.55;;;5.82;;
65162;SDS011;51751;55.714;37.436;2023-03-21T09:14:07;9.68;;;4.85;;
65162;SDS011;51751;55.714;37.436;2023-03-21T09:16:33;17.73;;;6.32;;
65162;SDS011;51751;55.714;37.436;2023-03-21T09:18:59;9.45;;;5.55;;
65162;SDS011;51751;55.714;37.436;2023-03-21T09:21:29;10.55;;;5.40;;
65162;SDS011;51751;55.714;37.436;2023-03-21T09:23:55;8.80;;;5.10;;
65162;SDS011;51751;55.714;37.436;2023-03-21T09:26:24;11.95;;;5.10;;
65162;SDS011;51751;55.714;37.436;2023-03-21T09:28:52;11.27;;;5.60;;
65162;SDS011;51751;55.714;37.436;2023-03-21T09:31:19;7.68;;;4.85;;
65162;SDS011;51751;55.714;37.436;2023-03-21T09:33:48;9.55;;;4.30;;
65162;SDS011;51751;55.714;37.436;2023-03-21T09:36:15;11.48;;;4.65;;
65162;SDS011;51751;55.714;37.436;2023-03-21T09:38:43;6.80;;;4.60;;
65162;SDS011;51751;55.714;37.436;2023-03-21T09:47:01;6.30;;;3.67;;
65162;SDS011;51751;55.714;37.436;2023-03-21T09:49:30;6.32;;;3.65;;
65162;SDS011;51751;55.714;37.436;2023-03-21T09:52:04;7.47;;;3.90;;
65162;SDS011;51751;55.714;37.436;2023-03-21T09:54:38;5.15;;;3.13;;
65162;SDS011;51751;55.714;37.436;2023-03-21T09:59:51;4.72;;;3.15;;
65162;SDS011;51751;55.714;37.436;2023-03-21T10:02:33;7.72;;;3.55;;
65162;SDS011;51751;55.714;37.436;2023-03-21T10:05:08;4.97;;;3.30;;
65162;SDS011;51751;55.714;37.436;2023-03-21T10:07:48;7.35;;;3.20;;
65162;SDS011;51751;55.714;37.436;2023-03-21T10:10:18;7.70;;;2.75;;
65162;SDS011;51751;55.714;37.436;2023-03-21T10:12:46;5.85;;;3.38;;
65162;SDS011;51751;55.714;37.436;2023-03-21T10:15:14;6.63;;;3.25;;
65162;SDS011;51751;55.714;37.436;2023-03-21T10:17:42;6.85;;;3.20;;
65162;SDS011;51751;55.714;37.436;2023-03-21T10:22:46;7.40;;;3.00;;
65162;SDS011;51751;55.714;37.436;2023-03-21T10:25:30;5.97;;;3.08;;
65162;SDS011;51751;55.714;37.436;2023-03-21T10:28:01;4.95;;;3.45;;
65162;SDS011;51751;55.714;37.436;2023-03-21T10:30:31;7.30;;;2.95;;
65162;SDS011;51751;55.714;37.436;2023-03-21T10:33:03;6.15;;;3.22;;
65162;SDS011;51751;55.714;37.436;2023-03-21T10:35:34;6.47;;;3.13;;
65162;SDS011;51751;55.714;37.436;2023-03-21T10:38:04;6.95;;;3.90;;
65162;SDS011;51751;55.714;37.436;2023-03-21T10:40:30;7.88;;;2.75;;
65162;SDS011;51751;55.714;37.436;2023-03-21T10:43:00;7.97;;;2.90;;
65162;SDS011;51751;55.714;37.436;2023-03-21T10:46:08;8.27;;;2.75;;
65162;SDS011;51751;55.714;37.436;2023-03-21T10:48:40;4.13;;;2.78;;
65162;SDS011;51751;55.714;37.436;2023-03-21T10:51:11;6.28;;;3.00;;
65162;SDS011;51751;55.714;37.436;2023-03-21T10:53:44;4.28;;;2.70;;
65162;SDS011;51751;55.714;37.436;2023-03-21T10:56:11;5.55;;;3.28;;
65162;SDS011;51751;55.714;37.436;2023-03-21T10:58:41;9.35;;;2.85;;
65162;SDS011;51751;55.714;37.436;2023-03-21T11:01:10;7.72;;;2.85;;
65162;SDS011;51751;55.714;37.436;2023-03-21T11:03:44;7.00;;;2.63;;
65162;SDS011;51751;55.714;37.436;2023-03-21T11:06:30;7.55;;;2.70;;
65162;SDS011;51751;55.714;37.436;2023-03-21T11:09:58;4.82;;;2.47;;
65162;SDS011;51751;55.714;37.436;2023-03-21T11:12:33;8.98;;;2.75;;
65162;SDS011;51751;55.714;37.436;2023-03-21T11:18:17;7.90;;;2.95;;
65162;SDS011;51751;55.714;37.436;2023-03-21T11:23:40;5.03;;;2.55;;
65162;SDS011;51751;55.714;37.436;2023-03-21T11:26:11;4.85;;;2.60;;
65162;SDS011;51751;55.714;37.436;2023-03-21T11:28:51;5.95;;;2.63;;
65162;SDS011;51751;55.714;37.436;2023-03-21T11:31:37;3.60;;;2.30;;
65162;SDS011;51751;55.714;37.436;2023-03-21T11:34:05;7.97;;;3.20;;
65162;SDS011;51751;55.714;37.436;2023-03-21T11:36:32;4.25;;;2.42;;
65162;SDS011;51751;55.714;37.436;2023-03-21T11:41:48;7.90;;;2.67;;
65162;SDS011;51751;55.714;37.436;2023-03-21T11:44:24;8.45;;;3.00;;
65162;SDS011;51751;55.714;37.436;2023-03-21T11:47:10;8.48;;;3.03;;
65162;SDS011;51751;55.714;37.436;2023-03-21T11:49:36;8.15;;;2.70;;
65162;SDS011;51751;55.714;37.436;2023-03-21T11:52:38;5.53;;;3.10;;
65162;SDS011;51751;55.714;37.436;2023-03-21T12:01:53;5.68;;;2.50;;
65162;SDS011;51751;55.714;37.436;2023-03-21T12:04:55;5.45;;;2.58;;
65162;SDS011;51751;55.714;37.436;2023-03-21T12:13:07;7.70;;;2.90;;
65162;SDS011;51751;55.714;37.436;2023-03-21T12:18:23;6.25;;;2.90;;
65162;SDS011;51751;55.714;37.436;2023-03-21T12:30:23;4.53;;;2.63;;
65162;SDS011;51751;55.714;37.436;2023-03-21T12:46:27;12.52;;;3.28;;
65162;SDS011;51751;55.714;37.436;2023-03-21T12:49:00;6.88;;;3.35;;
65162;SDS011;51751;55.714;37.436;2023-03-21T12:51:35;8.35;;;3.22;;
65162;SDS011;51751;55.714;37.436;2023-03-21T12:57:16;8.23;;;3.08;;
65162;SDS011;51751;55.714;37.436;2023-03-21T12:59:51;5.97;;;3.00;;
65162;SDS011;51751;55.714;37.436;2023-03-21T13:05:00;7.95;;;3.13;;
65162;SDS011;51751;55.714;37.436;2023-03-21T13:07:35;8.65;;;3.20;;
65162;SDS011;51751;55.714;37.436;2023-03-21T13:10:11;5.35;;;3.35;;
65162;SDS011;51751;55.714;37.436;2023-03-21T13:13:20;10.80;;;2.80;;
65162;SDS011;51751;55.714;37.436;2023-03-21T13:16:29;11.18;;;2.85;;
65162;SDS011;51751;55.714;37.436;2023-03-21T13:24:38;10.25;;;2.72;;
65162;SDS011;51751;55.714;37.436;2023-03-21T13:29:56;5.30;;;2.75;;
65162;SDS011;51751;55.714;37.436;2023-03-21T13:35:21;4.82;;;2.50;;
65162;SDS011;51751;55.714;37.436;2023-03-21T13:59:12;16.65;;;3.13;;
65162;SDS011;51751;55.714;37.436;2023-03-21T14:01:39;12.10;;;4.40;;
65162;SDS011;51751;55.714;37.436;2023-03-21T14:04:11;7.95;;;3.33;;
65162;SDS011;51751;55.714;37.436;2023-03-21T14:06:55;9.70;;;3.65;;
65162;SDS011;51751;55.714;37.436;2023-03-21T14:11:52;12.20;;;3.65;;
65162;SDS011;51751;55.714;37.436;2023-03-21T14:14:22;7.50;;;3.80;;
65162;SDS011;51751;55.714;37.436;2023-03-21T14:16:52;23.65;;;3.97;;
65162;SDS011;51751;55.714;37.436;2023-03-21T14:19:18;21.95;;;4.57;;
65162;SDS011;51751;55.714;37.436;2023-03-21T14:21:53;23.33;;;4.10;;
65162;SDS011;51751;55.714;37.436;2023-03-21T14:24:20;16.02;;;3.70;;
65162;SDS011;51751;55.714;37.436;2023-03-21T14:26:49;11.68;;;4.05;;
65162;SDS011;51751;55.714;37.436;2023-03-21T14:29:33;8.48;;;3.35;;
65162;SDS011;51751;55.714;37.436;2023-03-21T14:32:00;11.20;;;3.25;;
65162;SDS011;51751;55.714;37.436;2023-03-21T14:34:27;23.77;;;4.22;;
65162;SDS011;51751;55.714;37.436;2023-03-21T14:36:55;7.45;;;3.53;;
65162;SDS011;51751;55.714;37.436;2023-03-21T14:39:23;9.30;;;3.60;;
65162;SDS011;51751;55.714;37.436;2023-03-21T14:42:10;13.43;;;3.83;;
65162;SDS011;51751;55.714;37.436;2023-03-21T14:44:40;6.90;;;3.17;;
65162;SDS011;51751;55.714;37.436;2023-03-21T14:47:15;5.18;;;2.90;;
65162;SDS011;51751;55.714;37.436;2023-03-21T14:49:42;11.68;;;3.83;;
65162;SDS011;51751;55.714;37.436;2023-03-21T14:52:10;15.00;;;3.42;;
65162;SDS011;51751;55.714;37.436;2023-03-21T14:54:39;6.60;;;3.10;;
65162;SDS011;51751;55.714;37.436;2023-03-21T14:57:09;9.68;;;3.20;;
65162;SDS011;51751;55.714;37.436;2023-03-21T14:59:58;18.50;;;3.78;;
65162;SDS011;51751;55.714;37.436;2023-03-21T15:02:35;12.10;;;3.63;;
65162;SDS011;51751;55.714;37.436;2023-03-21T15:05:06;10.43;;;3.47;;
65162;SDS011;51751;55.714;37.436;2023-03-21T15:07:35;6.68;;;2.92;;
65162;SDS011;51751;55.714;37.436;2023-03-21T15:10:06;10.10;;;3.75;;
65162;SDS011;51751;55.714;37.436;2023-03-21T15:12:48;11.88;;;4.57;;
65162;SDS011;51751;55.714;37.436;2023-03-21T15:15:15;8.90;;;3.60;;
65162;SDS011;51751;55.714;37.436;2023-03-21T15:17:44;11.82;;;3.08;;
65162;SDS011;51751;55.714;37.436;2023-03-21T15:20:14;6.72;;;3.03;;
65162;SDS011;51751;55.714;37.436;2023-03-21T15:22:44;7.80;;;3.28;;
65162;SDS011;51751;55.714;37.436;2023-03-21T15:25:12;12.52;;;4.25;;
65162;SDS011;51751;55.714;37.436;2023-03-21T15:28:00;11.13;;;3.90;;
65162;SDS011;51751;55.714;37.436;2023-03-21T15:30:28;8.75;;;4.45;;
65162;SDS011;51751;55.714;37.436;2023-03-21T15:32:55;11.18;;;3.42;;
65162;SDS011;51751;55.714;37.436;2023-03-21T15:35:34;20.13;;;4.07;;
65162;SDS011;51751;55.714;37.436;2023-03-21T15:38:02;10.90;;;4.55;;
65162;SDS011;51751;55.714;37.436;2023-03-21T15:40:30;7.88;;;3.30;;
65162;SDS011;51751;55.714;37.436;2023-03-21T15:43:12;5.93;;;3.67;;
65162;SDS011;51751;55.714;37.436;2023-03-21T15:45:59;6.93;;;3.05;;
65162;SDS011;51751;55.714;37.436;2023-03-21T15:48:27;7.45;;;2.90;;
65162;SDS011;51751;55.714;37.436;2023-03-21T15:50:58;4.97;;;2.88;;
65162;SDS011;51751;55.714;37.436;2023-03-21T15:53:26;11.70;;;3.58;;
65162;SDS011;51751;55.714;37.436;2023-03-21T15:55:59;9.38;;;3.35;;
65162;SDS011;51751;55.714;37.436;2023-03-21T15:58:36;5.47;;;3.08;;
65162;SDS011;51751;55.714;37.436;2023-03-21T16:01:27;8.95;;;3.60;;
65162;SDS011;51751;55.714;37.436;2023-03-21T16:03:56;9.40;;;3.85;;
65162;SDS011;51751;55.714;37.436;2023-03-21T16:06:30;7.47;;;3.30;;
65162;SDS011;51751;55.714;37.436;2023-03-21T16:09:17;8.45;;;3.78;;
65162;SDS011;51751;55.714;37.436;2023-03-21T16:11:55;5.65;;;3.00;;
65162;SDS011;51751;55.714;37.436;2023-03-21T16:14:24;9.43;;;3.35;;
65162;SDS011;51751;55.714;37.436;2023-03-21T16:16:54;8.10;;;3.15;;
65162;SDS011;51751;55.714;37.436;2023-03-21T16:19:21;10.88;;;3.40;;
65162;SDS011;51751;55.714;37.436;2023-03-21T16:21:49;9.13;;;2.90;;
65162;SDS011;51751;55.714;37.436;2023-03-21T16:24:15;7.28;;;3.03;;
65162;SDS011;51751;55.714;37.436;2023-03-21T16:26:42;9.93;;;3.70;;
65162;SDS011;51751;55.714;37.436;2023-03-21T16:29:15;11.68;;;3.17;;
65162;SDS011;51751;55.714;37.436;2023-03-21T16:31:43;6.50;;;2.72;;
65162;SDS011;51751;55.714;37.436;2023-03-21T16:34:09;10.13;;;3.35;;
65162;SDS011;51751;55.714;37.436;2023-03-21T16:36:36;10.57;;;3.05;;
65162;SDS011;51751;55.714;37.436;2023-03-21T16:39:10;6.55;;;3.00;;
65162;SDS011;51751;55.714;37.436;2023-03-21T16:41:38;7.35;;;3.58;;
65162;SDS011;51751;55.714;37.436;2023-03-21T16:44:03;8.23;;;3.70;;
65162;SDS011;51751;55.714;37.436;2023-03-21T16:46:29;7.15;;;3.30;;
65162;SDS011;51751;55.714;37.436;2023-03-21T16:48:56;6.60;;;3.15;;
65162;SDS011;51751;55.714;37.436;2023-03-21T16:51:29;8.20;;;3.20;;
65162;SDS011;51751;55.714;37.436;2023-03-21T16:53:56;9.18;;;3.20;;
65162;SDS011;51751;55.714;37.436;2023-03-21T16:58:56;6.35;;;3.05;;
65162;SDS011;51751;55.714;37.436;2023-03-21T17:01:22;6.10;;;3.40;;
65162;SDS011;51751;55.714;37.436;2023-03-21T17:03:50;5.68;;;3.13;;
65162;SDS011;51751;55.714;37.436;2023-03-21T17:06:17;7.13;;;3.38;;
65162;SDS011;51751;55.714;37.436;2023-03-21T17:08:49;9.57;;;3.72;;
65162;SDS011;51751;55.714;37.436;2023-03-21T17:11:16;10.25;;;3.30;;
65162;SDS011;51751;55.714;37.436;2023-03-21T17:14:03;8.50;;;3.95;;